createdAt,value
2023-09-19T00:01:08.951Z,13.50
2023-09-19T00:03:45.657Z,14.60
2023-09-19T00:06:21.700Z,8.50
2023-09-19T00:08:54.497Z,14.60
2023-09-19T00:11:27.510Z,12.80
2023-09-19T00:14:00.808Z,12.40
2023-09-19T00:16:33.932Z,13.10
2023-09-19T00:19:10.297Z,13.20
2023-09-19T00:21:43.232Z,17.70
2023-09-19T00:24:15.325Z,15.20
2023-09-19T00:26:49.208Z,15.00
2023-09-19T00:29:22.694Z,11.40
2023-09-19T00:31:55.404Z,16.30
2023-09-19T00:34:27.494Z,12.20
2023-09-19T00:37:00.937Z,13.10
2023-09-19T00:39:33.658Z,14.20
2023-09-19T00:42:06.733Z,13.10
2023-09-19T00:44:39.705Z,13.20
2023-09-19T00:47:17.378Z,12.50
2023-09-19T00:49:53.962Z,10.80
2023-09-19T00:52:26.694Z,12.60
2023-09-19T00:55:01.400Z,20.10
2023-09-19T00:57:35.010Z,17.70
2023-09-19T01:00:09.807Z,14.90
2023-09-19T01:02:42.364Z,12.90
2023-09-19T01:05:15.518Z,15.00
2023-09-19T01:07:50.276Z,13.60
2023-09-19T01:10:24.476Z,12.20
2023-09-19T01:13:06.874Z,12.20
2023-09-19T01:15:53.612Z,14.20
2023-09-19T01:18:42.988Z,13.40
2023-09-19T01:21:24.559Z,13.60
2023-09-19T01:24:29.274Z,13.70
2023-09-19T01:27:28.061Z,12.80
2023-09-19T01:30:12.824Z,13.10
2023-09-19T01:32:47.892Z,14.20
2023-09-19T01:35:21.076Z,14.80
2023-09-19T01:37:55.002Z,13.40
2023-09-19T01:40:27.760Z,14.80
2023-09-19T01:43:08.459Z,13.60
2023-09-19T01:46:00.362Z,13.60
2023-09-19T01:48:41.606Z,15.20
2023-09-19T01:51:16.937Z,12.40
2023-09-19T01:53:58.253Z,11.40
2023-09-19T01:56:39.160Z,12.30
2023-09-19T01:59:16.105Z,16.00
2023-09-19T02:01:50.494Z,18.40
2023-09-19T02:04:23.953Z,15.80
2023-09-19T02:06:57.642Z,11.00
2023-09-19T02:09:31.445Z,13.30
2023-09-19T02:12:06.130Z,17.40
2023-09-19T02:14:40.799Z,17.60
2023-09-19T02:17:13.646Z,15.90
2023-09-19T02:19:46.112Z,14.00
2023-09-19T02:22:18.365Z,13.70
2023-09-19T02:24:52.041Z,14.30
2023-09-19T02:27:25.082Z,12.70
2023-09-19T02:29:58.005Z,15.50
2023-09-19T02:32:31.534Z,11.10
2023-09-19T02:35:05.738Z,15.10
2023-09-19T02:37:38.226Z,15.20
2023-09-19T02:40:20.530Z,12.20
2023-09-19T02:42:57.709Z,14.00
2023-09-19T02:45:31.335Z,15.60
2023-09-19T02:48:06.173Z,14.50
2023-09-19T02:50:39.722Z,10.90
2023-09-19T02:53:14.002Z,14.80
2023-09-19T02:55:47.260Z,18.00
2023-09-19T02:58:20.585Z,18.60
2023-09-19T03:00:53.131Z,11.10
2023-09-19T03:03:25.821Z,10.70
2023-09-19T03:05:59.901Z,17.20
2023-09-19T03:08:32.351Z,13.60
2023-09-19T03:11:06.951Z,16.20
2023-09-19T03:13:39.858Z,13.10
2023-09-19T03:16:13.077Z,12.30
2023-09-19T03:18:46.530Z,11.40
2023-09-19T03:21:20.884Z,14.50
2023-09-19T03:23:52.948Z,13.70
2023-09-19T03:26:27.647Z,14.30
2023-09-19T03:29:00.045Z,15.50
2023-09-19T03:31:32.294Z,17.40
2023-09-19T03:34:05.034Z,14.90
2023-09-19T03:36:37.166Z,13.40
2023-09-19T03:39:11.886Z,15.80
2023-09-19T03:41:46.406Z,16.00
2023-09-19T03:44:18.793Z,15.00
2023-09-19T03:46:51.701Z,15.80
2023-09-19T03:49:27.149Z,13.50
2023-09-19T03:51:59.734Z,14.70
2023-09-19T03:54:35.861Z,15.00
2023-09-19T03:57:08.837Z,17.20
2023-09-19T03:59:44.221Z,16.80
2023-09-19T04:02:23.920Z,13.00
2023-09-19T04:04:56.647Z,17.10
2023-09-19T04:07:30.450Z,14.80
2023-09-19T04:10:05.792Z,15.00
2023-09-19T04:12:37.893Z,13.30
2023-09-19T04:15:14.619Z,13.50
2023-09-19T04:17:48.036Z,15.00
2023-09-19T04:20:21.787Z,13.20
2023-09-19T04:22:54.098Z,15.60
2023-09-19T04:25:29.129Z,16.70
2023-09-19T04:28:01.805Z,14.10
2023-09-19T04:30:36.589Z,14.60
2023-09-19T04:33:09.043Z,12.10
2023-09-19T04:35:43.892Z,14.50
2023-09-19T04:38:16.101Z,13.30
2023-09-19T04:40:48.567Z,16.90
2023-09-19T04:43:23.069Z,11.70
2023-09-19T04:45:58.013Z,12.50
2023-09-19T04:48:31.100Z,13.60
2023-09-19T04:51:03.522Z,16.80
2023-09-19T04:53:35.984Z,20.30
2023-09-19T04:56:09.421Z,24.80
2023-09-19T04:58:41.686Z,20.90
2023-09-19T05:01:16.658Z,16.30
2023-09-19T05:03:53.663Z,14.20
2023-09-19T05:06:27.993Z,13.10
2023-09-19T05:09:01.635Z,18.40
2023-09-19T05:11:34.532Z,13.80
2023-09-19T05:14:07.021Z,12.40
2023-09-19T05:16:41.219Z,15.90
2023-09-19T05:19:13.929Z,16.30
2023-09-19T05:21:46.563Z,16.10
2023-09-19T05:24:19.224Z,12.70
2023-09-19T05:26:52.553Z,12.10
2023-09-19T05:29:24.780Z,14.30
2023-09-19T05:31:57.202Z,14.00
2023-09-19T05:34:31.491Z,19.50
2023-09-19T05:37:03.973Z,15.00
2023-09-19T05:39:36.189Z,14.60
2023-09-19T05:42:09.431Z,14.20
2023-09-19T05:44:41.655Z,14.10
2023-09-19T05:47:14.292Z,16.10
2023-09-19T05:49:46.611Z,10.20
2023-09-19T05:52:18.999Z,15.00
2023-09-19T05:54:52.361Z,14.80
2023-09-19T05:57:26.044Z,16.60
2023-09-19T05:59:58.178Z,15.30
2023-09-19T06:02:31.721Z,16.40
2023-09-19T06:05:04.636Z,16.90
2023-09-19T06:07:38.491Z,12.70
2023-09-19T06:10:11.587Z,13.30
2023-09-19T06:12:45.577Z,14.20
2023-09-19T06:15:20.675Z,17.00
2023-09-19T06:17:56.678Z,16.00
2023-09-19T06:20:30.159Z,15.00
2023-09-19T06:23:03.558Z,12.90
2023-09-19T06:25:35.912Z,13.60
2023-09-19T06:28:11.700Z,12.30
2023-09-19T06:30:43.978Z,16.40
2023-09-19T06:33:19.752Z,15.40
2023-09-19T06:35:54.022Z,12.40
2023-09-19T06:38:26.435Z,13.80
2023-09-19T06:40:58.786Z,14.70
2023-09-19T06:43:32.101Z,14.00
2023-09-19T06:46:05.208Z,12.30
2023-09-19T06:48:38.014Z,15.30
2023-09-19T06:51:11.317Z,17.40
2023-09-19T06:53:43.767Z,18.80
2023-09-19T06:56:15.818Z,13.50
2023-09-19T06:58:48.293Z,15.50
2023-09-19T07:01:21.911Z,14.50
2023-09-19T07:03:54.631Z,12.50
2023-09-19T07:06:27.400Z,13.60
2023-09-19T07:08:59.543Z,17.00
2023-09-19T07:11:32.160Z,12.10
2023-09-19T07:14:04.722Z,14.20
2023-09-19T07:16:37.428Z,14.40
2023-09-19T07:19:12.595Z,12.50
2023-09-19T07:21:44.808Z,12.70
2023-09-19T07:24:17.106Z,14.90
2023-09-19T07:26:49.502Z,13.60
2023-09-19T07:29:22.360Z,13.30
2023-09-19T07:31:54.578Z,15.70
2023-09-19T07:34:26.726Z,12.20
2023-09-19T07:36:58.865Z,17.20
2023-09-19T07:39:31.243Z,16.70
2023-09-19T07:42:03.893Z,16.80
2023-09-19T07:44:37.283Z,15.00
2023-09-19T07:47:10.980Z,20.70
2023-09-19T07:49:44.980Z,15.20
2023-09-19T07:52:17.416Z,20.20
2023-09-19T07:54:50.716Z,16.20
2023-09-19T07:57:22.842Z,17.70
2023-09-19T07:59:55.228Z,16.20
2023-09-19T08:02:27.408Z,13.40
2023-09-19T08:05:01.969Z,14.40
2023-09-19T08:07:34.276Z,17.70
2023-09-19T08:10:09.103Z,13.70
2023-09-19T08:12:47.481Z,15.00
2023-09-19T08:15:21.995Z,15.90
2023-09-19T08:17:54.400Z,15.30
2023-09-19T08:20:26.986Z,11.90
2023-09-19T08:23:00.057Z,17.00
2023-09-19T08:25:32.925Z,15.80
2023-09-19T08:28:09.617Z,14.80
2023-09-19T08:30:42.967Z,19.10
2023-09-19T08:33:16.454Z,15.70
2023-09-19T08:35:48.872Z,14.10
2023-09-19T08:38:22.171Z,14.60
2023-09-19T08:40:54.562Z,12.60
2023-09-19T08:43:26.834Z,14.30
2023-09-19T08:46:11.833Z,15.40
2023-09-19T08:48:54.265Z,15.50
2023-09-19T08:51:42.276Z,13.80
2023-09-19T08:54:23.547Z,13.40
2023-09-19T08:56:59.877Z,14.40
2023-09-19T08:59:32.967Z,17.10
2023-09-19T09:02:06.459Z,15.00
2023-09-19T09:04:38.844Z,26.60
2023-09-19T09:07:14.904Z,12.30
2023-09-19T09:09:47.377Z,12.80
2023-09-19T09:12:21.049Z,26.00
2023-09-19T09:14:53.801Z,13.20
2023-09-19T09:17:26.590Z,16.30
2023-09-19T09:20:00.033Z,21.30
2023-09-19T09:22:32.940Z,17.70
2023-09-19T09:25:06.045Z,19.00
2023-09-19T09:27:38.332Z,12.40
2023-09-19T09:30:14.382Z,15.10
2023-09-19T09:33:02.051Z,15.30
2023-09-19T09:35:40.218Z,16.80
2023-09-19T09:38:13.623Z,14.70
2023-09-19T09:41:01.101Z,14.20
2023-09-19T09:43:41.435Z,12.40
2023-09-19T09:46:36.502Z,13.00
2023-09-19T09:49:27.930Z,13.50
2023-09-19T09:52:12.222Z,18.60
2023-09-19T09:55:06.669Z,16.40
2023-09-19T09:57:42.275Z,11.10
2023-09-19T10:00:21.875Z,11.90
2023-09-19T10:02:54.563Z,9.50
2023-09-19T10:05:30.227Z,10.40
2023-09-19T10:08:21.024Z,16.00
2023-09-19T10:11:05.012Z,10.10
2023-09-19T10:13:43.287Z,6.70
2023-09-19T10:16:21.188Z,9.00
2023-09-19T10:18:59.674Z,7.80
2023-09-19T10:21:32.683Z,6.80
2023-09-19T10:24:06.092Z,6.90
2023-09-19T10:26:38.880Z,7.80
2023-09-19T10:29:12.121Z,7.30
2023-09-19T10:31:50.286Z,9.20
2023-09-19T10:34:24.720Z,8.10
2023-09-19T10:36:56.943Z,11.30
2023-09-19T10:39:32.848Z,12.20
2023-09-19T10:42:08.452Z,8.60
2023-09-19T10:44:44.678Z,8.30
2023-09-19T10:47:17.219Z,8.60
2023-09-19T10:49:50.185Z,8.90
2023-09-19T10:52:27.044Z,7.20
2023-09-19T10:55:02.741Z,9.00
2023-09-19T10:57:37.318Z,9.20
2023-09-19T11:00:25.563Z,8.40
2023-09-19T11:06:12.829Z,6.80
2023-09-19T11:09:25.123Z,7.60
2023-09-19T11:11:58.715Z,8.60
2023-09-19T11:14:46.794Z,10.80
2023-09-19T11:17:48.224Z,6.20
2023-09-19T11:20:43.089Z,5.80
2023-09-19T11:23:32.135Z,7.70
2023-09-19T11:26:05.969Z,11.40
2023-09-19T11:28:40.572Z,7.00
2023-09-19T11:32:00.923Z,5.80
2023-09-19T11:34:49.890Z,9.00
2023-09-19T11:38:12.293Z,6.80
2023-09-19T11:40:56.757Z,7.70
2023-09-19T11:43:41.718Z,5.90
2023-09-19T11:46:25.739Z,6.70
2023-09-19T11:49:09.436Z,7.90
2023-09-19T11:51:46.082Z,6.60
2023-09-19T11:54:23.349Z,5.30
2023-09-19T11:56:56.726Z,7.70
2023-09-19T11:59:34.605Z,6.10
2023-09-19T12:02:10.127Z,8.70
2023-09-19T12:04:46.629Z,6.70
2023-09-19T12:07:25.260Z,6.30
2023-09-19T12:10:13.069Z,6.20
2023-09-19T12:12:51.320Z,5.20
2023-09-19T12:15:29.913Z,9.40
2023-09-19T12:18:09.243Z,10.00
2023-09-19T12:20:50.158Z,6.00
2023-09-19T12:23:23.086Z,5.90
2023-09-19T12:25:58.857Z,9.70
2023-09-19T12:28:36.276Z,8.30
2023-09-19T12:31:13.204Z,8.80
2023-09-19T12:33:45.863Z,5.60
2023-09-19T12:36:31.478Z,8.50
2023-09-19T12:39:10.258Z,9.70
2023-09-19T12:41:46.581Z,6.90
2023-09-19T12:44:19.437Z,6.60
2023-09-19T12:46:52.290Z,9.60
2023-09-19T12:49:24.478Z,7.00
2023-09-19T12:52:00.659Z,5.40
2023-09-19T12:54:43.141Z,7.40
2023-09-19T12:57:28.603Z,5.30
2023-09-19T13:00:01.247Z,9.50
2023-09-19T13:02:33.999Z,7.30
2023-09-19T13:05:08.410Z,9.40
2023-09-19T13:07:48.540Z,9.50
2023-09-19T13:10:25.565Z,5.70
2023-09-19T13:13:00.156Z,6.60
2023-09-19T13:15:53.614Z,6.80
2023-09-19T13:18:28.166Z,8.90
2023-09-19T13:21:16.401Z,6.50
2023-09-19T13:23:49.655Z,7.40
2023-09-19T13:26:23.980Z,8.90
2023-09-19T13:28:56.585Z,9.20
2023-09-19T13:31:28.890Z,6.80
2023-09-19T13:34:01.206Z,7.70
2023-09-19T13:36:33.899Z,8.40
2023-09-19T13:39:06.701Z,7.20
2023-09-19T13:41:44.048Z,8.30
2023-09-19T13:44:19.318Z,7.10
2023-09-19T13:46:52.763Z,12.70
2023-09-19T13:49:25.413Z,7.30
2023-09-19T13:51:59.550Z,9.20
2023-09-19T13:54:31.989Z,10.80
2023-09-19T13:57:04.561Z,10.00
2023-09-19T13:59:37.221Z,8.90
2023-09-19T14:02:09.919Z,7.00
2023-09-19T14:04:42.361Z,9.70
2023-09-19T14:07:16.627Z,12.40
2023-09-19T14:09:54.121Z,13.10
2023-09-19T14:12:28.826Z,10.90
2023-09-19T14:15:00.873Z,11.40
2023-09-19T14:17:34.356Z,7.90
2023-09-19T14:20:08.416Z,7.90
2023-09-19T14:22:41.137Z,6.20
2023-09-19T14:25:13.566Z,5.50
2023-09-19T14:27:46.124Z,8.60
2023-09-19T14:30:18.815Z,5.20
2023-09-19T14:32:57.356Z,4.70
2023-09-19T14:35:29.496Z,6.10
2023-09-19T14:38:03.040Z,6.10
2023-09-19T14:40:37.526Z,6.20
2023-09-19T14:43:09.909Z,6.20
2023-09-19T14:45:42.261Z,6.00
2023-09-19T14:48:14.678Z,6.40
2023-09-19T14:50:49.477Z,7.50
2023-09-19T14:53:22.220Z,5.80
2023-09-19T14:55:56.291Z,8.00
2023-09-19T14:58:31.247Z,8.40
2023-09-19T15:01:11.564Z,6.90
2023-09-19T15:03:45.754Z,5.90
2023-09-19T15:06:23.170Z,5.90
2023-09-19T15:08:55.351Z,9.50
2023-09-19T15:11:27.444Z,4.60
2023-09-19T15:14:00.276Z,4.80
2023-09-19T15:16:34.274Z,7.40
2023-09-19T15:19:08.724Z,7.00
2023-09-19T15:21:41.624Z,9.60
2023-09-19T15:24:14.065Z,5.30
2023-09-19T15:26:49.355Z,7.80
2023-09-19T15:29:22.802Z,5.90
2023-09-19T15:31:58.737Z,6.10
2023-09-19T15:34:31.337Z,7.10
2023-09-19T15:37:07.204Z,5.10
2023-09-19T15:39:39.391Z,4.20
2023-09-19T15:42:13.347Z,5.70
2023-09-19T15:44:47.987Z,5.10
2023-09-19T15:47:28.761Z,5.50
2023-09-19T15:50:01.517Z,4.50
2023-09-19T15:52:33.781Z,6.70
2023-09-19T15:55:08.552Z,4.60
2023-09-19T15:57:41.658Z,5.60
2023-09-19T16:00:18.542Z,6.30
2023-09-19T16:02:52.936Z,7.10
2023-09-19T16:05:26.475Z,6.20
2023-09-19T16:08:01.620Z,5.80
2023-09-19T16:10:36.306Z,7.60
2023-09-19T16:13:09.308Z,7.90
2023-09-19T16:15:45.885Z,4.50
2023-09-19T16:18:17.958Z,5.70
2023-09-19T16:20:51.593Z,5.80
2023-09-19T16:23:25.389Z,6.50
2023-09-19T16:26:07.183Z,4.40
2023-09-19T16:28:40.477Z,4.90
2023-09-19T16:31:13.066Z,4.60
2023-09-19T16:33:47.314Z,7.00
2023-09-19T16:36:24.006Z,8.20
2023-09-19T16:38:56.497Z,3.80
2023-09-19T16:41:29.055Z,9.80
2023-09-19T16:44:02.449Z,3.90
2023-09-19T16:46:38.320Z,4.90
2023-09-19T16:49:11.145Z,4.80
2023-09-19T16:51:45.624Z,5.90
2023-09-19T16:54:18.145Z,7.80
2023-09-19T16:56:50.978Z,7.10
2023-09-19T16:59:25.201Z,6.40
2023-09-19T17:01:58.561Z,5.00
2023-09-19T17:04:32.676Z,7.50
2023-09-19T17:07:05.196Z,7.10
2023-09-19T17:09:37.583Z,5.10
2023-09-19T17:12:11.788Z,5.30
2023-09-19T17:14:45.200Z,7.10
2023-09-19T17:17:17.738Z,3.60
2023-09-19T17:19:50.757Z,3.10
2023-09-19T17:22:24.687Z,5.10
2023-09-19T17:24:56.836Z,5.60
2023-09-19T17:27:29.405Z,3.40
2023-09-19T17:30:01.485Z,5.60
2023-09-19T17:32:33.890Z,5.50
2023-09-19T17:35:06.803Z,5.90
2023-09-19T17:37:40.465Z,6.90
2023-09-19T17:40:16.644Z,3.90
2023-09-19T17:42:50.086Z,3.60
2023-09-19T17:45:23.479Z,8.30
2023-09-19T17:47:58.049Z,3.50
2023-09-19T17:50:30.581Z,4.40
2023-09-19T17:53:04.153Z,4.40
2023-09-19T17:55:40.988Z,6.40
2023-09-19T17:58:17.144Z,3.10
2023-09-19T18:00:49.606Z,8.40
2023-09-19T18:03:26.326Z,5.30
2023-09-19T18:05:58.652Z,4.00
2023-09-19T18:08:31.003Z,5.60
2023-09-19T18:11:05.219Z,5.10
2023-09-19T18:13:37.631Z,3.70
2023-09-19T18:16:11.761Z,9.20
2023-09-19T18:18:47.021Z,6.80
2023-09-19T18:21:22.628Z,6.20
2023-09-19T18:23:59.058Z,5.90
2023-09-19T18:26:31.713Z,10.10
2023-09-19T18:29:07.034Z,6.40
2023-09-19T18:31:50.786Z,4.70
2023-09-19T18:34:23.282Z,5.30
2023-09-19T18:37:00.176Z,4.70
2023-09-19T18:39:35.839Z,5.90
2023-09-19T18:42:09.601Z,5.40
2023-09-19T18:44:47.546Z,8.30
2023-09-19T18:49:52.209Z,6.50
2023-09-19T18:52:28.798Z,5.10
2023-09-19T18:55:01.109Z,3.20
2023-09-19T18:57:33.242Z,3.50
2023-09-19T19:00:06.223Z,5.40
2023-09-19T19:02:40.984Z,6.30
2023-09-19T19:05:14.589Z,5.10
2023-09-19T19:07:47.265Z,5.60
2023-09-19T19:10:21.736Z,8.20
2023-09-19T19:12:54.102Z,3.00
2023-09-19T19:15:26.619Z,12.60
2023-09-19T19:18:00.204Z,5.50
2023-09-19T19:20:33.977Z,3.40
2023-09-19T19:23:06.850Z,4.40
2023-09-19T19:25:48.574Z,5.10
2023-09-19T19:28:26.232Z,3.30
2023-09-19T19:33:30.754Z,6.00
2023-09-19T19:36:09.638Z,5.20
2023-09-19T19:38:42.933Z,4.10
2023-09-19T19:41:15.543Z,6.20
2023-09-19T19:43:50.640Z,3.80
2023-09-19T19:46:23.327Z,5.80
2023-09-19T19:48:55.585Z,4.90
2023-09-19T19:51:28.214Z,4.40
2023-09-19T19:54:00.347Z,5.90
2023-09-19T19:56:34.901Z,5.70
2023-09-19T19:59:07.652Z,4.40
2023-09-19T20:01:41.975Z,8.70
2023-09-19T20:04:15.520Z,3.60
2023-09-19T20:06:47.724Z,4.60
2023-09-19T20:09:22.598Z,7.10
2023-09-19T20:11:58.435Z,4.70
2023-09-19T20:14:30.922Z,4.60
2023-09-19T20:17:05.315Z,6.60
2023-09-19T20:19:37.409Z,4.00
2023-09-19T20:22:12.222Z,7.90
2023-09-19T20:24:47.459Z,4.70
2023-09-19T20:27:22.557Z,4.90
2023-09-19T20:29:54.613Z,8.50
2023-09-19T20:32:26.982Z,7.20
2023-09-19T20:35:01.192Z,6.90
2023-09-19T20:37:34.220Z,4.30
2023-09-19T20:40:07.785Z,5.60
2023-09-19T20:42:40.653Z,7.50
2023-09-19T20:45:14.307Z,5.40
2023-09-19T20:47:46.676Z,4.30
2023-09-19T20:50:20.604Z,3.60
2023-09-19T20:52:54.074Z,6.30
2023-09-19T20:55:26.732Z,8.00
2023-09-19T20:58:00.824Z,6.50
2023-09-19T21:00:36.108Z,8.40
2023-09-19T21:03:08.648Z,8.70
2023-09-19T21:05:41.132Z,7.60
2023-09-19T21:08:13.127Z,8.80
2023-09-19T21:10:45.491Z,7.40
2023-09-19T21:13:17.718Z,7.40
2023-09-19T21:15:50.428Z,11.40
2023-09-19T21:18:23.029Z,7.60
2023-09-19T21:20:55.855Z,10.00
2023-09-19T21:23:27.988Z,7.10
2023-09-19T21:26:00.557Z,8.00
2023-09-19T21:28:32.756Z,6.70
2023-09-19T21:31:08.522Z,6.30
2023-09-19T21:33:43.740Z,8.20
2023-09-19T21:36:21.945Z,6.10
2023-09-19T21:39:00.173Z,7.40
2023-09-19T21:41:35.135Z,6.40
2023-09-19T21:44:08.852Z,7.80
2023-09-19T21:46:42.945Z,10.00
2023-09-19T21:49:15.024Z,5.40
2023-09-19T21:51:47.351Z,6.10
2023-09-19T21:54:24.860Z,10.50
2023-09-19T21:56:59.630Z,7.20
2023-09-19T21:59:31.582Z,6.60
2023-09-19T22:02:04.097Z,7.00
2023-09-19T22:04:37.061Z,9.10
2023-09-19T22:07:10.136Z,7.50
2023-09-19T22:09:42.040Z,6.20
2023-09-19T22:12:14.798Z,7.20
2023-09-19T22:14:46.846Z,5.10
2023-09-19T22:17:20.485Z,7.10
2023-09-19T22:19:55.188Z,8.10
2023-09-19T22:22:31.001Z,7.20
2023-09-19T22:25:03.654Z,5.10
2023-09-19T22:27:36.431Z,4.90
2023-09-19T22:30:13.379Z,5.80
2023-09-19T22:32:46.080Z,7.30
2023-09-19T22:35:23.238Z,7.70
2023-09-19T22:38:08.167Z,7.10
2023-09-19T22:40:52.855Z,4.80
2023-09-19T22:43:33.389Z,4.60
2023-09-19T22:46:12.465Z,4.80
2023-09-19T22:48:47.349Z,4.20
2023-09-19T22:51:26.474Z,5.00
2023-09-19T22:54:00.645Z,6.30
2023-09-19T22:56:32.678Z,5.20
2023-09-19T22:59:06.049Z,4.70
2023-09-19T23:01:42.602Z,4.60
2023-09-19T23:04:18.501Z,5.00
2023-09-19T23:06:53.928Z,4.70
2023-09-19T23:09:31.251Z,6.50
2023-09-19T23:12:06.717Z,6.50
2023-09-19T23:14:43.101Z,10.50
2023-09-19T23:17:22.829Z,6.40
2023-09-19T23:19:57.263Z,4.20
2023-09-19T23:22:30.311Z,5.00
2023-09-19T23:25:13.679Z,7.80
2023-09-19T23:27:48.683Z,4.90
2023-09-19T23:30:24.283Z,5.80
2023-09-19T23:32:56.927Z,3.80
2023-09-19T23:35:29.756Z,6.90
2023-09-19T23:38:03.514Z,6.50
2023-09-19T23:40:37.522Z,4.50
2023-09-19T23:43:12.953Z,8.00
2023-09-19T23:45:45.602Z,5.70
2023-09-19T23:48:20.559Z,7.70
2023-09-19T23:50:53.283Z,4.10
2023-09-19T23:53:27.561Z,6.20
2023-09-19T23:55:59.891Z,4.80
2023-09-19T23:58:34.322Z,9.20
